sensor_id;sensor_type;location;lat;lon;timestamp;temperature;humidity
45735;DHT22;31446;49.632;8.328;2023-04-03T00:02:45;5.10;99.90
45735;DHT22;31446;49.632;8.328;2023-04-03T00:17:51;4.70;99.90
45735;DHT22;31446;49.632;8.328;2023-04-03T00:32:58;4.40;99.90
45735;DHT22;31446;49.632;8.328;2023-04-03T00:48:06;4.20;99.90
45735;DHT22;31446;49.632;8.328;2023-04-03T01:03:13;3.70;99.90
45735;DHT22;31446;49.632;8.328;2023-04-03T01:18:20;3.50;99.90
45735;DHT22;31446;49.632;8.328;2023-04-03T01:33:26;3.10;99.90
45735;DHT22;31446;49.632;8.328;2023-04-03T01:48:35;2.90;99.90
45735;DHT22;31446;49.632;8.328;2023-04-03T02:03:41;2.80;99.90
45735;DHT22;31446;49.632;8.328;2023-04-03T02:18:47;2.80;99.90
45735;DHT22;31446;49.632;8.328;2023-04-03T02:33:54;2.70;99.90
45735;DHT22;31446;49.632;8.328;2023-04-03T02:49:00;3.10;99.90
45735;DHT22;31446;49.632;8.328;2023-04-03T03:04:06;3.20;99.90
45735;DHT22;31446;49.632;8.328;2023-04-03T03:19:12;3.30;99.90
45735;DHT22;31446;49.632;8.328;2023-04-03T03:34:18;3.30;99.90
45735;DHT22;31446;49.632;8.328;2023-04-03T03:49:24;3.20;99.90
45735;DHT22;31446;49.632;8.328;2023-04-03T04:04:30;3.20;99.90
45735;DHT22;31446;49.632;8.328;2023-04-03T04:19:37;2.70;99.90
45735;DHT22;31446;49.632;8.328;2023-04-03T04:34:43;2.60;99.90
45735;DHT22;31446;49.632;8.328;2023-04-03T04:49:49;2.10;99.90
45735;DHT22;31446;49.632;8.328;2023-04-03T05:04:55;1.90;99.90
45735;DHT22;31446;49.632;8.328;2023-04-03T05:20:02;1.90;99.90
45735;DHT22;31446;49.632;8.328;2023-04-03T05:35:09;1.90;99.90
45735;DHT22;31446;49.632;8.328;2023-04-03T05:50:15;2.20;99.90
45735;DHT22;31446;49.632;8.328;2023-04-03T06:05:21;2.70;99.90
45735;DHT22;31446;49.632;8.328;2023-04-03T06:20:28;3.50;99.90
45735;DHT22;31446;49.632;8.328;2023-04-03T06:35:34;4.20;99.90
45735;DHT22;31446;49.632;8.328;2023-04-03T06:50:41;4.70;99.90
45735;DHT22;31446;49.632;8.328;2023-04-03T07:05:48;5.20;99.90
45735;DHT22;31446;49.632;8.328;2023-04-03T07:20:54;5.70;99.90
45735;DHT22;31446;49.632;8.328;2023-04-03T07:36:00;6.10;99.90
45735;DHT22;31446;49.632;8.328;2023-04-03T07:51:07;6.90;99.90
45735;DHT22;31446;49.632;8.328;2023-04-03T08:06:14;6.70;99.90
45735;DHT22;31446;49.632;8.328;2023-04-03T08:21:21;7.20;99.90
45735;DHT22;31446;49.632;8.328;2023-04-03T08:36:29;7.10;99.90
45735;DHT22;31446;49.632;8.328;2023-04-03T08:51:35;7.90;99.90
45735;DHT22;31446;49.632;8.328;2023-04-03T09:06:43;8.10;99.90
45735;DHT22;31446;49.632;8.328;2023-04-03T09:21:52;8.30;99.90
45735;DHT22;31446;49.632;8.328;2023-04-03T09:37:00;8.00;99.90
45735;DHT22;31446;49.632;8.328;2023-04-03T09:52:25;7.60;99.90
45735;DHT22;31446;49.632;8.328;2023-04-03T10:07:34;8.40;99.00
45735;DHT22;31446;49.632;8.328;2023-04-03T10:22:48;8.70;96.70
45735;DHT22;31446;49.632;8.328;2023-04-03T10:38:08;9.60;96.80
45735;DHT22;31446;49.632;8.328;2023-04-03T10:53:21;9.70;94.80
45735;DHT22;31446;49.632;8.328;2023-04-03T11:08:35;9.50;94.30
45735;DHT22;31446;49.632;8.328;2023-04-03T11:23:44;10.50;93.30
45735;DHT22;31446;49.632;8.328;2023-04-03T11:38:53;10.70;90.40
45735;DHT22;31446;49.632;8.328;2023-04-03T12:10:13;10.80;92.10
45735;DHT22;31446;49.632;8.328;2023-04-03T12:41:06;10.30;90.60
45735;DHT22;31446;49.632;8.328;2023-04-03T12:56:23;9.80;92.70
45735;DHT22;31446;49.632;8.328;2023-04-03T13:11:33;10.20;90.40
45735;DHT22;31446;49.632;8.328;2023-04-03T13:26:41;10.70;90.20
45735;DHT22;31446;49.632;8.328;2023-04-03T13:41:49;10.20;87.60
45735;DHT22;31446;49.632;8.328;2023-04-03T13:56:58;12.20;83.30
45735;DHT22;31446;49.632;8.328;2023-04-03T14:12:08;10.40;85.50
45735;DHT22;31446;49.632;8.328;2023-04-03T14:27:20;10.60;80.80
45735;DHT22;31446;49.632;8.328;2023-04-03T14:42:28;9.90;80.60
45735;DHT22;31446;49.632;8.328;2023-04-03T14:57:35;10.20;80.00
45735;DHT22;31446;49.632;8.328;2023-04-03T15:12:43;10.60;76.80
45735;DHT22;31446;49.632;8.328;2023-04-03T15:27:49;10.40;76.30
45735;DHT22;31446;49.632;8.328;2023-04-03T15:42:56;10.20;74.50
45735;DHT22;31446;49.632;8.328;2023-04-03T15:58:02;9.90;75.00
45735;DHT22;31446;49.632;8.328;2023-04-03T16:13:08;10.40;78.40
45735;DHT22;31446;49.632;8.328;2023-04-03T16:28:15;9.50;76.60
45735;DHT22;31446;49.632;8.328;2023-04-03T16:43:22;9.40;78.10
45735;DHT22;31446;49.632;8.328;2023-04-03T16:58:29;9.00;83.40
45735;DHT22;31446;49.632;8.328;2023-04-03T17:13:35;8.80;84.10
45735;DHT22;31446;49.632;8.328;2023-04-03T17:28:42;8.80;84.00
45735;DHT22;31446;49.632;8.328;2023-04-03T17:43:48;8.80;84.50
45735;DHT22;31446;49.632;8.328;2023-04-03T17:58:55;8.40;86.90
45735;DHT22;31446;49.632;8.328;2023-04-03T18:14:03;7.40;90.10
45735;DHT22;31446;49.632;8.328;2023-04-03T18:29:10;7.00;91.10
45735;DHT22;31446;49.632;8.328;2023-04-03T18:44:20;6.60;91.20
45735;DHT22;31446;49.632;8.328;2023-04-03T18:59:27;6.40;91.60
45735;DHT22;31446;49.632;8.328;2023-04-03T19:14:33;6.10;91.90
45735;DHT22;31446;49.632;8.328;2023-04-03T19:29:39;5.90;92.10
45735;DHT22;31446;49.632;8.328;2023-04-03T19:44:46;5.70;92.50
45735;DHT22;31446;49.632;8.328;2023-04-03T19:59:52;5.50;92.10
45735;DHT22;31446;49.632;8.328;2023-04-03T20:14:58;5.20;92.50
45735;DHT22;31446;49.632;8.328;2023-04-03T20:30:11;5.00;93.00
45735;DHT22;31446;49.632;8.328;2023-04-03T20:45:17;4.80;93.20
45735;DHT22;31446;49.632;8.328;2023-04-03T21:00:24;4.60;93.90
45735;DHT22;31446;49.632;8.328;2023-04-03T21:30:55;4.20;94.50
45735;DHT22;31446;49.632;8.328;2023-04-03T21:46:01;4.00;95.00
45735;DHT22;31446;49.632;8.328;2023-04-03T22:01:12;3.80;95.30
45735;DHT22;31446;49.632;8.328;2023-04-03T22:16:19;3.60;95.80
45735;DHT22;31446;49.632;8.328;2023-04-03T22:31:25;3.40;96.00
45735;DHT22;31446;49.632;8.328;2023-04-03T22:46:31;3.20;96.60
45735;DHT22;31446;49.632;8.328;2023-04-03T23:01:40;3.00;97.30
45735;DHT22;31446;49.632;8.328;2023-04-03T23:16:47;2.90;98.00
45735;DHT22;31446;49.632;8.328;2023-04-03T23:31:56;2.70;98.20
45735;DHT22;31446;49.632;8.328;2023-04-03T23:47:02;2.50;99.00
